Time;durP1;ratioP1;P1;durP2;ratioP2;P2;SDS_P1;SDS_P2;PMS_P1;PMS_P2;Temp;Humidity;BMP_temperature;BMP_pressure;BME280_temperature;BME280_humidity;BME280_pressure;Samples;Min_cycle;Max_cycle;Signal;HPM_P1;HPM_P2
2023/08/16 00:01:57;;;;;;;3.00;1.90;;;;;;;20.75;100.00;97577.09;5071943;28;20396;-72
2023/08/16 00:04:23;;;;;;;2.00;1.80;;;;;;;20.78;100.00;97586.47;5071859;28;20405;-72
2023/08/16 00:06:51;;;;;;;2.30;1.70;;;;;;;20.80;100.00;97586.94;5071892;28;20404;-72
2023/08/16 00:09:17;;;;;;;2.65;1.52;;;;;;;20.83;100.00;97583.63;5071572;28;20412;-72
2023/08/16 00:11:43;;;;;;;1.70;1.52;;;;;;;20.85;100.00;97584.09;5071630;28;20799;-72
2023/08/16 00:14:10;;;;;;;1.60;1.50;;;;;;;20.85;100.00;97584.91;5084465;28;20539;-72
2023/08/16 00:16:37;;;;;;;2.45;1.50;;;;;;;20.85;100.00;97578.72;5092070;28;20413;-72
2023/08/16 00:19:04;;;;;;;1.80;1.50;;;;;;;20.84;100.00;97561.78;5091654;28;20394;-72
2023/08/16 00:21:30;;;;;;;1.90;1.40;;;;;;;20.84;100.00;97556.41;5091757;28;20394;-72
2023/08/16 00:23:58;;;;;;;1.67;1.50;;;;;;;20.83;100.00;97535.19;5091786;28;20473;-72
2023/08/16 00:26:24;;;;;;;1.73;1.63;;;;;;;20.82;100.00;97531.69;5091814;28;21005;-73
2023/08/16 00:28:50;;;;;;;2.10;1.83;;;;;;;20.82;100.00;97539.00;5091549;28;20406;-72
2023/08/16 00:31:18;;;;;;;3.17;2.22;;;;;;;20.78;100.00;97541.53;5078053;28;20435;-72
2023/08/16 00:33:44;;;;;;;2.83;2.38;;;;;;;20.74;100.00;97561.31;5071136;28;20411;-72
2023/08/16 00:36:10;;;;;;;3.08;2.20;;;;;;;20.72;100.00;97560.81;5084144;28;20753;-72
2023/08/16 00:38:42;;;;;;;2.13;1.92;;;;;;;20.69;100.00;97567.59;5091409;28;20737;-72
2023/08/16 00:41:10;;;;;;;2.92;2.00;;;;;;;20.67;100.00;97560.97;5091431;28;20455;-72
2023/08/16 00:43:36;;;;;;;2.22;2.00;;;;;;;20.65;100.00;97555.09;5091610;28;20386;-72
2023/08/16 00:46:04;;;;;;;2.45;2.15;;;;;;;20.65;100.00;97552.41;5071394;28;20735;-72
2023/08/16 00:48:32;;;;;;;2.58;2.10;;;;;;;20.63;100.00;97550.03;5070897;28;20526;-72
2023/08/16 00:50:59;;;;;;;2.53;2.20;;;;;;;20.62;100.00;97553.00;5070998;28;20491;-72
2023/08/16 00:53:29;;;;;;;2.60;2.30;;;;;;;20.58;100.00;97549.38;5070962;28;20492;-72
2023/08/16 00:55:56;;;;;;;2.53;2.33;;;;;;;20.55;100.00;97555.38;5070786;28;20796;-72
2023/08/16 00:58:24;;;;;;;5.05;2.90;;;;;;;20.51;100.00;97551.72;5070976;28;20453;-72
2023/08/16 01:00:50;;;;;;;2.80;2.30;;;;;;;20.47;100.00;97549.66;5070506;28;20407;-72
2023/08/16 01:03:17;;;;;;;2.53;2.33;;;;;;;20.45;100.00;97541.09;5070746;28;20396;-72
2023/08/16 01:05:43;;;;;;;2.30;2.10;;;;;;;20.44;100.00;97542.22;5070581;28;20414;-72
2023/08/16 01:08:09;;;;;;;2.60;2.40;;;;;;;20.45;100.00;97542.97;5082511;28;20402;-72
2023/08/16 01:10:47;;;;;;;3.55;2.88;;;;;;;20.44;100.00;97542.22;5090812;28;20448;-72
2023/08/16 01:13:19;;;;;;;3.27;2.97;;;;;;;20.38;100.00;97531.88;5090804;28;20784;-72
2023/08/16 01:15:49;;;;;;;2.87;2.60;;;;;;;20.32;100.00;97539.28;5090881;28;20404;-72
2023/08/16 01:18:16;;;;;;;3.33;2.88;;;;;;;20.30;100.00;97538.00;5090840;28;20724;-72
2023/08/16 01:20:44;;;;;;;5.28;3.75;;;;;;;20.28;100.00;97540.22;5090594;28;20479;-72
2023/08/16 01:23:20;;;;;;;4.30;3.10;;;;;;;20.27;100.00;97539.41;5090709;28;20749;-72
2023/08/16 01:25:50;;;;;;;3.67;3.33;;;;;;;20.21;100.00;97535.28;5081292;28;20396;-72
2023/08/16 01:28:20;;;;;;;3.92;3.30;;;;;;;20.15;100.00;97533.81;5070557;28;20876;-72
2023/08/16 01:30:47;;;;;;;3.25;2.90;;;;;;;20.12;100.00;97534.44;5079450;28;20398;-72
2023/08/16 01:33:13;;;;;;;4.45;3.50;;;;;;;20.12;100.00;97542.50;5090518;28;20888;-72
2023/08/16 01:35:41;;;;;;;4.07;3.53;;;;;;;20.10;100.00;97536.63;5090406;28;20884;-72
2023/08/16 01:38:10;;;;;;;3.40;3.10;;;;;;;20.07;100.00;97529.97;5078341;28;20432;-72
2023/08/16 01:40:41;;;;;;;3.63;3.25;;;;;;;20.07;100.00;97532.66;5070230;28;20878;-72
2023/08/16 01:43:10;;;;;;;5.55;3.40;;;;;;;20.08;100.00;97538.84;5070210;28;20423;-72
2023/08/16 01:45:37;;;;;;;4.53;3.13;;;;;;;20.10;100.00;97533.94;5070267;28;20403;-72
2023/08/16 01:48:05;;;;;;;3.80;3.25;;;;;;;20.12;100.00;97537.13;5070184;28;20406;-72
2023/08/16 01:50:32;;;;;;;3.50;3.20;;;;;;;20.10;100.00;97542.00;5069955;28;20404;-72
2023/08/16 01:52:58;;;;;;;3.92;3.53;;;;;;;20.05;100.00;97531.41;5069926;28;20450;-72
2023/08/16 01:55:25;;;;;;;3.58;3.20;;;;;;;20.02;100.00;97535.50;5070012;28;20433;-72
2023/08/16 01:57:51;;;;;;;4.63;3.50;;;;;;;20.02;100.00;97542.75;5088574;28;20440;-72
2023/08/16 02:00:19;;;;;;;3.85;3.45;;;;;;;19.99;100.00;97544.19;5088997;28;21300;-72
2023/08/16 02:02:47;;;;;;;5.10;3.50;;;;;;;19.98;100.00;97547.19;5090062;28;20398;-72
2023/08/16 02:05:13;;;;;;;4.00;3.55;;;;;;;19.94;100.00;97549.66;5090286;28;20828;-72
2023/08/16 02:07:39;;;;;;;4.45;3.20;;;;;;;19.91;100.00;97538.75;5090261;28;20394;-72
2023/08/16 02:10:06;;;;;;;5.55;4.22;;;;;;;19.86;100.00;97530.81;5090122;28;20915;-72
2023/08/16 02:12:32;;;;;;;3.77;3.37;;;;;;;19.83;100.00;97539.50;5089971;28;20918;-72
2023/08/16 02:14:59;;;;;;;4.15;3.65;;;;;;;19.82;100.00;97532.53;5087407;28;20414;-72
2023/08/16 02:17:25;;;;;;;5.20;4.35;;;;;;;19.80;100.00;97530.16;5069937;28;20461;-72
2023/08/16 02:19:53;;;;;;;4.78;3.88;;;;;;;19.77;100.00;97530.78;5073628;28;20915;-72
2023/08/16 02:22:19;;;;;;;4.43;3.70;;;;;;;19.76;100.00;97539.13;5073758;28;20399;-72
2023/08/16 02:24:45;;;;;;;5.63;3.88;;;;;;;19.78;100.00;97534.22;5082901;28;20907;-72
2023/08/16 02:27:12;;;;;;;4.35;3.95;;;;;;;19.76;100.00;97525.72;5094083;28;20919;-72
2023/08/16 02:29:38;;;;;;;4.37;3.97;;;;;;;19.72;100.00;97525.50;5093802;28;20406;-72
2023/08/16 02:32:04;;;;;;;4.50;3.90;;;;;;;19.68;100.00;97514.59;5093722;28;20397;-72
2023/08/16 02:34:30;;;;;;;4.35;3.95;;;;;;;19.68;100.00;97524.56;5093836;28;20417;-72
2023/08/16 02:36:58;;;;;;;7.50;4.07;;;;;;;19.65;100.00;97515.19;5093835;28;20402;-72
2023/08/16 02:39:24;;;;;;;5.32;4.10;;;;;;;19.62;100.00;97515.81;5093618;28;20763;-72
2023/08/16 02:41:53;;;;;;;4.63;3.90;;;;;;;19.62;100.00;97507.75;5093619;28;20402;-72
2023/08/16 02:44:19;;;;;;;4.50;3.90;;;;;;;19.62;100.00;97507.75;5088542;28;20817;-72
2023/08/16 02:46:45;;;;;;;5.60;4.53;;;;;;;19.63;100.00;97505.84;5073270;28;20399;-72
2023/08/16 02:49:11;;;;;;;4.50;3.90;;;;;;;19.61;100.00;97511.56;5073182;28;20403;-72
2023/08/16 02:51:37;;;;;;;4.88;4.10;;;;;;;19.61;100.00;97516.13;5073183;28;20446;-72
2023/08/16 02:54:06;;;;;;;3.90;3.58;;;;;;;19.60;100.00;97522.59;5073116;28;20526;-72
2023/08/16 02:56:33;;;;;;;4.30;3.72;;;;;;;19.56;100.00;97510.88;5073001;28;20407;-72
2023/08/16 02:58:59;;;;;;;4.40;3.85;;;;;;;19.54;100.00;97518.47;5054868;28;20431;-72
2023/08/16 03:01:25;;;;;;;4.40;3.80;;;;;;;19.50;100.00;97512.09;5072969;28;20408;-72
2023/08/16 03:03:52;;;;;;;3.72;3.33;;;;;;;19.46;100.00;97516.47;5072982;28;20414;-73
2023/08/16 03:06:18;;;;;;;4.20;3.80;;;;;;;19.42;100.00;97510.91;5072970;28;20878;-73
2023/08/16 03:08:44;;;;;;;4.20;3.25;;;;;;;19.39;100.00;97508.03;5072722;28;20410;-73
2023/08/16 03:11:13;;;;;;;4.05;3.45;;;;;;;19.36;100.00;97517.50;5072891;28;20396;-73
2023/08/16 03:13:39;;;;;;;3.53;3.22;;;;;;;19.32;100.00;97517.28;5072802;28;20828;-72
2023/08/16 03:16:05;;;;;;;3.50;3.20;;;;;;;19.32;100.00;97519.97;5076270;28;20405;-72
2023/08/16 03:18:31;;;;;;;3.92;3.50;;;;;;;19.32;100.00;97532.63;5092991;28;20451;-72
2023/08/16 03:20:58;;;;;;;4.10;3.40;;;;;;;19.31;100.00;97533.72;5092892;28;20493;-72
2023/08/16 03:23:25;;;;;;;4.35;3.75;;;;;;;19.27;100.00;97530.84;5092986;28;20394;-72
2023/08/16 03:25:51;;;;;;;4.32;3.92;;;;;;;19.24;100.00;97544.09;5076067;28;20968;-72
2023/08/16 03:28:18;;;;;;;3.80;3.47;;;;;;;19.23;100.00;97555.91;5092883;28;20817;-72
2023/08/16 03:30:44;;;;;;;3.85;3.20;;;;;;;19.21;100.00;97560.78;5091501;28;20406;-73
2023/08/16 03:33:11;;;;;;;3.63;3.33;;;;;;;19.19;100.00;97561.06;5092776;28;20433;-72
2023/08/16 03:35:37;;;;;;;3.53;3.23;;;;;;;19.17;100.00;97567.88;5092838;28;20480;-72
2023/08/16 03:38:03;;;;;;;6.68;3.60;;;;;;;19.14;100.00;97571.94;5092686;28;20406;-73
2023/08/16 03:40:29;;;;;;;4.15;3.75;;;;;;;19.10;100.00;97570.94;5092523;28;20405;-72
2023/08/16 03:42:56;;;;;;;4.27;3.47;;;;;;;19.09;100.00;97577.41;5092407;28;20904;-72
2023/08/16 03:45:25;;;;;;;4.20;3.78;;;;;;;19.09;100.00;97580.09;5092462;28;20398;-72
2023/08/16 03:47:52;;;;;;;4.47;3.88;;;;;;;19.07;100.00;97589.53;5092366;28;20410;-72
2023/08/16 03:50:18;;;;;;;4.60;3.60;;;;;;;19.06;100.00;97593.31;5092314;28;20398;-72
2023/08/16 03:52:44;;;;;;;4.30;3.40;;;;;;;19.04;100.00;97601.66;5092184;28;20393;-72
2023/08/16 03:55:10;;;;;;;3.83;3.42;;;;;;;19.04;100.00;97625.00;5092197;28;20891;-72
2023/08/16 03:57:37;;;;;;;4.18;3.50;;;;;;;19.03;100.00;97631.47;5092299;28;20405;-72
2023/08/16 04:00:05;;;;;;;5.00;3.83;;;;;;;19.01;100.00;97650.56;5092011;28;20414;-72
2023/08/16 04:02:32;;;;;;;4.45;3.88;;;;;;;19.01;100.00;97658.63;5076573;28;20410;-72
2023/08/16 04:05:08;;;;;;;4.45;4.05;;;;;;;19.01;100.00;97645.19;5082832;28;20405;-72
2023/08/16 04:07:34;;;;;;;3.80;3.50;;;;;;;19.04;100.00;97651.84;5076257;28;20391;-72
2023/08/16 04:10:00;;;;;;;4.20;3.80;;;;;;;19.06;100.00;97665.75;5082837;28;20410;-71
2023/08/16 04:12:26;;;;;;;4.60;3.75;;;;;;;19.10;100.00;97661.38;5091876;28;20455;-72
2023/08/16 04:14:53;;;;;;;4.13;3.72;;;;;;;19.12;100.00;97660.00;5089959;28;20425;-72
2023/08/16 04:17:19;;;;;;;4.72;4.13;;;;;;;19.13;100.00;97660.78;5071665;28;20404;-72
2023/08/16 04:19:46;;;;;;;4.07;3.65;;;;;;;19.12;100.00;97656.50;5071522;28;20890;-72
2023/08/16 04:22:13;;;;;;;4.15;3.58;;;;;;;19.11;100.00;97653.03;5071496;28;20404;-72
2023/08/16 04:24:39;;;;;;;4.63;3.80;;;;;;;19.12;100.00;97660.00;5071849;28;20742;-72
2023/08/16 04:27:05;;;;;;;4.63;3.90;;;;;;;19.14;100.00;97654.31;5071531;28;20446;-72
2023/08/16 04:29:32;;;;;;;4.65;3.50;;;;;;;19.15;100.00;97647.88;5071283;28;20483;-72
2023/08/16 04:31:58;;;;;;;3.63;3.30;;;;;;;19.15;100.00;97642.50;5071195;28;20403;-72
2023/08/16 04:34:24;;;;;;;4.03;3.58;;;;;;;19.14;100.00;97636.34;5071282;28;20415;-72
2023/08/16 04:36:52;;;;;;;4.32;3.90;;;;;;;19.14;100.00;97636.34;5072745;28;20766;-72
2023/08/16 04:39:18;;;;;;;4.13;3.67;;;;;;;19.13;100.00;97633.94;5091358;28;20406;-72
2023/08/16 04:41:44;;;;;;;4.85;3.95;;;;;;;19.12;100.00;97637.72;5091147;28;20441;-72
2023/08/16 04:44:11;;;;;;;4.32;3.72;;;;;;;19.09;100.00;97630.28;5091291;28;20422;-72
2023/08/16 04:46:37;;;;;;;4.10;3.70;;;;;;;19.07;100.00;97632.47;5091326;28;20401;-71
2023/08/16 04:49:03;;;;;;;4.90;3.47;;;;;;;19.05;100.00;97631.97;5090973;28;20497;-72
2023/08/16 04:51:29;;;;;;;3.65;3.28;;;;;;;19.06;100.00;97626.31;5091105;28;20794;-72
2023/08/16 04:53:57;;;;;;;3.85;3.30;;;;;;;19.08;100.00;97620.66;5091029;28;20410;-72
2023/08/16 04:56:23;;;;;;;3.30;3.00;;;;;;;19.10;100.00;97619.22;5076708;28;20416;-72
2023/08/16 04:58:49;;;;;;;4.38;3.50;;;;;;;19.12;100.00;97616.25;5070684;28;20700;-72
2023/08/16 05:01:17;;;;;;;4.30;3.67;;;;;;;19.17;100.00;97613.50;5070668;28;20754;-72
2023/08/16 05:03:50;;;;;;;5.38;3.38;;;;;;;19.17;100.00;97606.19;5070656;28;20602;-70
2023/08/16 05:06:16;;;;;;;3.97;3.57;;;;;;;19.20;100.00;97597.56;5070796;28;20396;-72
2023/08/16 05:08:42;;;;;;;5.50;4.43;;;;;;;19.22;100.00;97600.75;5070504;28;20407;-72
2023/08/16 05:11:10;;;;;;;4.82;4.30;;;;;;;19.25;100.00;97600.13;5070657;28;20449;-72
2023/08/16 05:13:36;;;;;;;6.55;4.97;;;;;;;19.31;100.00;97607.00;5070622;28;20416;-72
2023/08/16 05:16:02;;;;;;;5.13;4.50;;;;;;;19.36;100.00;97603.41;5090454;28;20401;-73
2023/08/16 05:18:28;;;;;;;5.60;4.40;;;;;;;19.43;100.00;97603.78;5090845;28;20451;-72
2023/08/16 05:20:56;;;;;;;6.55;5.13;;;;;;;19.50;100.00;97611.44;5090505;28;20427;-72
2023/08/16 05:23:22;;;;;;;6.03;4.70;;;;;;;19.58;100.00;97602.66;5090802;28;20401;-72
2023/08/16 05:25:49;;;;;;;5.80;4.13;;;;;;;19.65;100.00;97595.78;5072587;28;20445;-72
2023/08/16 05:28:16;;;;;;;4.65;4.13;;;;;;;19.74;100.00;97603.91;5090660;28;20394;-72
2023/08/16 05:30:43;;;;;;;6.65;5.30;;;;;;;19.82;100.00;97611.22;5090471;28;20844;-72
2023/08/16 05:33:09;;;;;;;11.23;6.70;;;;;;;19.91;100.00;97616.69;5090459;28;20479;-72
2023/08/16 05:35:35;;;;;;;8.05;6.15;;;;;;;20.00;100.00;97620.19;5090678;28;20433;-72
2023/08/16 05:38:01;;;;;;;7.30;5.97;;;;;;;20.07;100.00;97621.34;5072305;28;20903;-72
2023/08/16 05:40:28;;;;;;;7.80;5.95;;;;;;;20.17;100.00;97631.06;5090437;28;20485;-72
2023/08/16 05:42:54;;;;;;;9.93;6.53;;;;;;;20.28;100.00;97639.69;5090332;28;20440;-72
2023/08/16 05:45:26;;;;;;;8.45;5.97;;;;;;;20.38;100.00;97647.50;5090463;28;20880;-72
2023/08/16 05:47:52;;;;;;;8.02;5.50;;;;;;;20.47;100.00;97649.16;5082260;28;20486;-72
2023/08/16 05:50:18;;;;;;;6.30;5.40;;;;;;;20.55;100.00;97638.75;5090512;28;20452;-72
2023/08/16 05:52:44;;;;;;;7.25;5.07;;;;;;;20.62;100.00;97639.09;5089821;28;20949;-71
2023/08/16 05:55:11;;;;;;;6.72;5.00;;;;;;;20.70;100.00;97641.03;5090461;28;20421;-71
2023/08/16 05:57:37;;;;;;;4.95;4.10;;;;;;;20.78;100.00;97633.00;5090468;28;20398;-72
2023/08/16 06:00:04;;;;;;;4.53;3.97;;;;;;;20.87;100.00;97641.09;5090343;28;20402;-72
2023/08/16 06:02:32;;;;;;;5.30;4.63;;;;;;;20.93;100.00;97639.84;5090139;28;20409;-72
2023/08/16 06:04:59;;;;;;;6.28;4.30;;;;;;;21.01;100.00;97641.00;5090435;28;20394;-72
2023/08/16 06:07:26;;;;;;;6.57;4.78;;;;;;;21.09;100.00;97645.59;5090416;28;20489;-72
2023/08/16 06:09:52;;;;;;;4.90;4.15;;;;;;;21.16;100.00;97645.94;5071925;28;20405;-72
2023/08/16 06:12:19;;;;;;;5.72;4.55;;;;;;;21.22;100.00;97642.03;5090303;28;20399;-72
2023/08/16 06:14:45;;;;;;;5.03;4.20;;;;;;;21.28;100.00;97639.97;5090094;28;20418;-72
2023/08/16 06:17:11;;;;;;;5.82;4.10;;;;;;;21.32;100.00;97630.97;5090076;28;20467;-72
2023/08/16 06:19:38;;;;;;;5.50;3.78;;;;;;;21.35;100.00;97632.25;5090182;28;20756;-72
2023/08/16 06:22:05;;;;;;;3.92;3.53;;;;;;;21.38;100.00;97634.28;5089949;28;20402;-72
2023/08/16 06:24:35;;;;;;;7.27;5.00;;;;;;;21.34;100.00;97627.97;5090190;28;20481;-72
2023/08/16 06:27:01;;;;;;;5.17;4.20;;;;;;;21.33;100.00;97639.84;5090034;28;20398;-72
2023/08/16 06:29:27;;;;;;;5.90;4.78;;;;;;;21.25;100.00;97638.72;5089938;28;20459;-72
2023/08/16 06:31:56;;;;;;;7.82;4.97;;;;;;;21.18;100.00;97633.00;5088078;28;20408;-72
2023/08/16 06:34:24;;;;;;;10.40;5.57;;;;;;;21.12;100.00;97640.41;5069765;28;20419;-72
2023/08/16 06:36:53;;;;;;;6.88;5.20;;;;;;;21.07;100.00;97635.16;5069759;28;20465;-72
2023/08/16 06:39:19;;;;;;;5.90;4.80;;;;;;;21.04;100.00;97640.38;5069854;28;20468;-72
2023/08/16 06:41:46;;;;;;;6.75;4.63;;;;;;;21.02;100.00;97635.31;5069952;28;20503;-72
2023/08/16 06:44:12;;;;;;;7.63;5.00;;;;;;;21.02;100.00;97631.81;5069854;28;20766;-72
2023/08/16 06:46:38;;;;;;;9.20;5.32;;;;;;;21.01;100.00;97636.41;5069789;28;20403;-72
2023/08/16 06:49:04;;;;;;;8.73;6.43;;;;;;;20.97;100.00;97632.75;5069712;28;20439;-72
2023/08/16 06:51:31;;;;;;;9.95;7.43;;;;;;;20.98;100.00;97631.63;5069572;28;20396;-71
2023/08/16 06:53:58;;;;;;;9.90;6.80;;;;;;;20.98;100.00;97633.53;5069614;28;20494;-71
2023/08/16 06:56:24;;;;;;;8.38;6.75;;;;;;;21.02;100.00;97637.19;5051574;28;20469;-72
2023/08/16 06:58:50;;;;;;;9.43;6.93;;;;;;;21.07;100.00;97634.34;5069710;28;20897;-71
2023/08/16 07:01:17;;;;;;;8.50;6.50;;;;;;;21.14;100.00;97637.38;5069434;28;20412;-71
2023/08/16 07:03:43;;;;;;;6.85;5.90;;;;;;;21.19;100.00;97634.59;5086958;28;20422;-71
2023/08/16 07:06:09;;;;;;;6.95;6.20;;;;;;;21.27;100.00;97639.19;5092365;28;20400;-71
2023/08/16 07:08:35;;;;;;;12.20;7.03;;;;;;;21.33;100.00;97629.88;5093255;28;20929;-71
2023/08/16 07:11:03;;;;;;;11.30;6.97;;;;;;;21.35;100.00;97624.94;5093061;28;20480;-71
2023/08/16 07:13:29;;;;;;;7.47;5.85;;;;;;;21.42;100.00;97624.50;5093191;28;20404;-71
2023/08/16 07:15:55;;;;;;;6.60;5.28;;;;;;;21.51;100.00;97618.00;5093137;28;20394;-71
2023/08/16 07:18:23;;;;;;;6.43;5.40;;;;;;;21.60;100.00;97616.09;5093207;28;20399;-71
2023/08/16 07:20:49;;;;;;;6.73;5.23;;;;;;;21.73;100.00;97627.03;5092814;28;20814;-71
2023/08/16 07:23:16;;;;;;;5.72;4.45;;;;;;;21.84;100.00;97617.53;5093061;28;20398;-71
2023/08/16 07:25:42;;;;;;;4.35;3.95;;;;;;;21.93;100.00;97613.72;5092760;28;20413;-71
2023/08/16 07:28:09;;;;;;;4.30;3.78;;;;;;;22.03;100.00;97618.00;5092887;28;20805;-71
2023/08/16 07:30:37;;;;;;;4.60;3.58;;;;;;;22.12;100.00;97613.41;5092676;28;20476;-71
2023/08/16 07:33:04;;;;;;;4.07;3.30;;;;;;;22.21;100.00;97610.69;5092557;28;20493;-71
2023/08/16 07:35:30;;;;;;;3.80;3.10;;;;;;;22.28;100.00;97611.78;5092844;28;20414;-71
2023/08/16 07:37:57;;;;;;;7.35;3.97;;;;;;;22.33;100.00;97608.91;5092690;28;20408;-71
2023/08/16 07:40:23;;;;;;;4.22;3.53;;;;;;;22.38;100.00;97614.16;5092412;28;20430;-71
2023/08/16 07:42:49;;;;;;;3.50;3.03;;;;;;;22.45;100.00;97605.56;5092540;28;20402;-71
2023/08/16 07:45:17;;;;;;;3.67;3.28;;;;;;;22.52;100.00;97607.75;5087755;28;20388;-71
2023/08/16 07:47:43;;;;;;;3.50;3.05;;;;;;;22.60;100.00;97613.13;5072541;28;20400;-71
2023/08/16 07:50:10;;;;;;;3.00;2.70;;;;;;;22.67;100.00;97610.72;5072258;28;20403;-71
2023/08/16 07:52:36;;;;;;;4.13;3.25;;;;;;;22.73;100.00;97608.63;5072203;28;20404;-71
2023/08/16 07:55:04;;;;;;;3.40;3.10;;;;;;;22.77;100.00;97613.09;5071963;28;20819;-71
2023/08/16 07:57:31;;;;;;;5.30;3.67;;;;;;;22.81;100.00;97610.50;5072125;28;20431;-71
2023/08/16 07:59:57;;;;;;;4.30;3.47;;;;;;;22.88;100.00;97613.50;5071941;28;20773;-71
2023/08/16 08:02:25;;;;;;;4.03;3.17;;;;;;;22.93;100.00;97604.44;5071988;28;20895;-71
2023/08/16 08:04:51;;;;;;;7.97;4.75;;;;;;;23.00;100.00;97604.72;5053916;28;20403;-71
2023/08/16 08:07:18;;;;;;;7.07;5.13;;;;;;;23.06;100.00;97611.50;5071950;28;20954;-71
2023/08/16 08:09:44;;;;;;;6.13;4.40;;;;;;;23.12;100.00;97600.19;5071468;28;20897;-71
2023/08/16 08:12:10;;;;;;;4.85;4.00;;;;;;;23.20;100.00;97598.56;5071834;28;20441;-71
2023/08/16 08:14:36;;;;;;;5.97;4.18;;;;;;;23.30;100.00;97602.78;5071790;28;20458;-71
2023/08/16 08:17:03;;;;;;;6.32;4.10;;;;;;;23.40;100.00;97596.97;5071173;28;20411;-71
2023/08/16 08:19:31;;;;;;;6.17;5.13;;;;;;;23.45;100.00;97597.59;5071633;28;20403;-72
2023/08/16 08:21:57;;;;;;;6.80;4.77;;;;;;;23.51;100.00;97593.59;5071470;28;20400;-72
2023/08/16 08:24:23;;;;;;;6.07;4.22;;;;;;;23.61;100.00;97599.72;5071474;28;20388;-72
2023/08/16 08:26:49;;;;;;;3.63;3.33;;;;;;;23.71;100.00;97602.03;5071340;28;20877;-72
2023/08/16 08:29:18;;;;;;;3.67;3.00;;;;;;;23.80;100.00;97590.03;5071418;28;20396;-72
2023/08/16 08:31:44;;;;;;;5.32;3.30;;;;;;;23.89;100.00;97590.75;5071216;28;20400;-72
2023/08/16 08:34:10;;;;;;;3.77;3.07;;;;;;;24.01;100.00;97589.19;5071404;28;20515;-72
2023/08/16 08:36:38;;;;;;;4.57;3.53;;;;;;;24.12;100.00;97585.75;5071391;28;20418;-72
2023/08/16 08:39:04;;;;;;;4.28;3.42;;;;;;;24.23;100.00;97592.31;5052981;28;20404;-72
2023/08/16 08:41:32;;;;;;;4.05;2.80;;;;;;;24.34;100.00;97589.22;5071140;28;20812;-72
2023/08/16 08:43:59;;;;;;;4.10;3.25;;;;;;;24.45;100.00;97591.13;5071040;28;20391;-72
2023/08/16 08:46:29;;;;;;;5.90;4.63;;;;;;;24.47;100.00;97585.38;5071232;28;20407;-72
2023/08/16 08:48:58;;;;;;;7.13;4.82;;;;;;;24.51;100.00;97584.38;5073113;28;20915;-72
2023/08/16 08:51:28;;;;;;;9.50;6.13;;;;;;;24.48;100.00;97586.97;5091214;28;20405;-72
2023/08/16 08:53:56;;;;;;;5.80;4.22;;;;;;;24.61;100.00;97583.94;5091162;28;20442;-72
2023/08/16 08:56:25;;;;;;;4.70;3.50;;;;;;;24.74;100.00;97586.63;5091168;28;20439;-72
2023/08/16 08:58:52;;;;;;;5.27;3.77;;;;;;;24.87;100.00;97591.75;5090943;28;20748;-72
2023/08/16 09:01:20;;;;;;;6.07;4.18;;;;;;;24.97;100.00;97595.94;5091125;28;20400;-72
2023/08/16 09:03:48;;;;;;;4.03;3.58;;;;;;;25.11;100.00;97598.31;5090923;28;20394;-72
2023/08/16 09:06:15;;;;;;;3.70;3.20;;;;;;;25.23;100.00;97599.06;5091135;28;20402;-72
2023/08/16 09:08:43;;;;;;;3.80;3.20;;;;;;;25.35;100.00;97599.03;5090778;28;20413;-72
2023/08/16 09:11:11;;;;;;;4.88;3.00;;;;;;;25.48;100.00;97591.69;5090918;28;20899;-72
2023/08/16 09:13:37;;;;;;;4.70;3.07;;;;;;;25.54;100.00;97595.75;5072571;28;20472;-72
2023/08/16 09:16:04;;;;;;;5.68;3.95;;;;;;;25.58;100.00;97579.56;5090756;28;20483;-72
2023/08/16 09:18:30;;;;;;;5.82;3.83;;;;;;;25.65;100.00;97591.44;5090885;28;20394;-72
2023/08/16 09:20:59;;;;;;;4.00;2.90;;;;;;;25.74;100.00;97586.66;5090711;28;20408;-72
2023/08/16 09:23:26;;;;;;;4.93;3.17;;;;;;;25.88;100.00;97577.34;5090884;28;20895;-72
2023/08/16 09:25:52;;;;;;;6.50;3.47;;;;;;;25.95;100.00;97574.81;5090697;28;20394;-72
2023/08/16 09:28:22;;;;;;;5.53;3.27;;;;;;;26.01;100.00;97563.38;5089928;28;20398;-72
2023/08/16 09:30:49;;;;;;;4.05;3.20;;;;;;;26.05;100.00;97561.53;5090386;28;20844;-72
2023/08/16 09:33:19;;;;;;;3.38;2.95;;;;;;;26.12;100.00;97558.22;5090716;28;20456;-72
2023/08/16 09:35:48;;;;;;;4.07;2.90;;;;;;;26.14;100.00;97562.19;5090528;28;20414;-72
2023/08/16 09:38:18;;;;;;;5.40;4.18;;;;;;;26.12;100.00;97555.50;5090671;28;20409;-72
2023/08/16 09:40:48;;;;;;;4.00;3.30;;;;;;;26.05;100.00;97556.13;5090365;28;20455;-73
2023/08/16 09:43:15;;;;;;;4.18;3.45;;;;;;;25.97;100.00;97550.84;5090678;28;20422;-72
2023/08/16 09:45:46;;;;;;;4.90;3.40;;;;;;;25.88;100.00;97561.84;5090486;28;20401;-72
2023/08/16 09:48:12;;;;;;;4.97;3.10;;;;;;;25.83;100.00;97557.47;5090702;28;20436;-72
2023/08/16 09:50:39;;;;;;;6.72;3.33;;;;;;;25.83;100.00;97559.41;5090533;28;20402;-72
2023/08/16 09:53:05;;;;;;;4.22;3.13;;;;;;;25.81;100.00;97556.22;5090555;28;20402;-72
2023/08/16 09:55:33;;;;;;;3.87;3.00;;;;;;;25.91;100.00;97563.09;5090388;28;20503;-72
2023/08/16 09:58:00;;;;;;;3.15;2.85;;;;;;;26.06;100.00;97552.28;5090622;28;20422;-72
2023/08/16 10:00:27;;;;;;;3.58;3.00;;;;;;;26.27;100.00;97551.28;5090313;28;20401;-72
2023/08/16 10:02:55;;;;;;;3.20;2.80;;;;;;;26.48;100.00;97544.44;5090184;28;20816;-72
2023/08/16 10:05:21;;;;;;;4.20;3.17;;;;;;;26.65;100.00;97542.53;5090231;28;20871;-72
2023/08/16 10:07:48;;;;;;;4.32;3.47;;;;;;;26.87;100.00;97552.75;5090096;28;20398;-72
2023/08/16 10:10:14;;;;;;;3.60;2.90;;;;;;;27.13;100.00;97547.56;5090089;28;20402;-72
2023/08/16 10:12:41;;;;;;;3.67;3.33;;;;;;;27.36;100.00;97540.28;5073314;28;20395;-72
2023/08/16 10:15:09;;;;;;;11.85;3.63;;;;;;;27.45;100.00;97542.78;5070046;28;20420;-72
2023/08/16 10:17:39;;;;;;;4.30;3.30;;;;;;;27.48;100.00;97550.25;5070010;28;20395;-72
2023/08/16 10:20:13;;;;;;;3.77;2.93;;;;;;;27.42;100.00;97540.78;5069986;28;20723;-72
2023/08/16 10:22:43;;;;;;;3.90;3.00;;;;;;;27.55;100.00;97549.63;5069896;28;20392;-72
2023/08/16 10:25:15;;;;;;;3.67;3.15;;;;;;;27.64;100.00;97540.13;5069824;28;20392;-72
2023/08/16 10:27:44;;;;;;;3.23;2.93;;;;;;;27.68;100.00;97540.94;5069958;28;20395;-72
2023/08/16 10:30:18;;;;;;;3.67;2.80;;;;;;;27.66;100.00;97543.28;5069751;28;20395;-72
2023/08/16 10:32:47;;;;;;;3.92;2.70;;;;;;;27.60;100.00;97533.00;5069794;28;20897;-73
2023/08/16 10:35:16;;;;;;;3.50;2.80;;;;;;;27.56;100.00;97535.66;5069766;28;20440;-72
2023/08/16 10:37:46;;;;;;;5.75;3.60;;;;;;;27.47;100.00;97531.56;5069791;28;20448;-72
2023/08/16 10:40:22;;;;;;;3.80;3.40;;;;;;;27.29;100.00;97529.25;5072295;28;20822;-72
2023/08/16 10:42:55;;;;;;;4.20;3.70;;;;;;;27.22;100.00;97534.53;5073393;28;20410;-72
2023/08/16 10:45:23;;;;;;;3.60;3.10;;;;;;;27.23;100.00;97536.13;5073487;28;20396;-72
2023/08/16 10:47:49;;;;;;;3.60;3.10;;;;;;;27.34;100.00;97522.75;5073470;28;20403;-72
2023/08/16 10:50:16;;;;;;;4.80;3.38;;;;;;;27.45;100.00;97522.97;5073487;28;20821;-72
2023/08/16 10:52:43;;;;;;;3.55;3.03;;;;;;;27.56;100.00;97519.34;5082166;28;20910;-72
2023/08/16 10:55:11;;;;;;;5.28;3.65;;;;;;;27.63;100.00;97515.97;5093665;28;20448;-72
2023/08/16 10:57:37;;;;;;;4.05;3.65;;;;;;;27.73;100.00;97526.28;5093699;28;20485;-73
2023/08/16 11:00:05;;;;;;;5.22;4.03;;;;;;;27.74;100.00;97519.72;5093530;28;20428;-73
2023/08/16 11:02:34;;;;;;;3.55;3.25;;;;;;;27.82;100.00;97509.75;5093634;28;20915;-73
2023/08/16 11:05:01;;;;;;;8.93;4.70;;;;;;;27.93;100.00;97505.28;5093545;28;20485;-73
2023/08/16 11:07:28;;;;;;;4.03;3.28;;;;;;;28.04;100.00;97500.81;5093575;28;20883;-73
2023/08/16 11:10:01;;;;;;;4.13;3.37;;;;;;;28.16;100.00;97510.78;5093138;28;20452;-72
2023/08/16 11:12:31;;;;;;;3.40;3.10;;;;;;;28.31;100.00;97507.94;5093349;28;20417;-72
2023/08/16 11:14:57;;;;;;;4.50;3.30;;;;;;;28.47;100.00;97502.34;5093133;28;20826;-72
2023/08/16 11:17:26;;;;;;;6.35;3.65;;;;;;;28.58;100.00;97502.50;5093216;28;20425;-72
2023/08/16 11:19:53;;;;;;;5.07;3.80;;;;;;;28.70;100.00;97503.09;5092920;28;20451;-72
2023/08/16 11:22:24;;;;;;;5.45;3.88;;;;;;;28.79;100.00;97500.91;5093197;28;20398;-72
2023/08/16 11:24:51;;;;;;;4.18;3.40;;;;;;;29.04;100.00;97503.22;5093238;28;20396;-72